TFM - Tactical Decision Aid
ID: Runway Winds: CIG/VIS Threshold:

KCLE - Cleveland/Hopkins In, OH, US

Updated at: 1249 UTC 24 May 2019
Latest TAF at: 1127 UTC 24 May 2019

TAF Board

Time<<25/01Z 25/02Z 25/03Z 25/04Z 25/05Z 25/06Z 25/07Z 25/08Z 25/09Z 25/10Z 25/11Z 25/12Z 25/13Z>>
Type PRVL PRVL PRVL PRVL PRVL PRVL PRVL PRVL PRVL PRVL PRVL PRVL PRVL
VIS >6 >6 >6 >6 >6 >6 >6 >6 >6 >6 >6 >6 >6
CIG -- -- -- -- -- 60 60 60 60 60 60 60 60
Cover FEW FEW FEW FEW FEW BKN BKN BKN BKN BKN BKN BKN BKN
FltCat VFR VFR VFR VFR VFR VFR VFR VFR VFR VFR VFR VFR VFR
WX -- -- -- -- -- -- -- -- -- -- -- -- --
WDir VRB VRB VRB VRB VRB 170 170 170 170 170 170 170 170
WSpd 0 0 0 0 0 10 10 10 10 10 10 10 10
WGst -- -- -- -- -- -- -- -- -- -- -- -- --

TDA Impact Legend

  None Marginal Slight Moderate High
Visibility (sm) >5 3≤X≤5 1≤X<3 0.5≤X<1 <0.5
Ceiling (100 ft) >30 10≤X≤30 4≤X<10 2≤X<4 <2
Wind Speed (kt) <15 15≤X<25 25≤X<30 ≥30
Wind Gust (kt) <15 15≤X<25 25≤X<35 ≥35
Weather No Wx Reported VCTS -TS,-FZRA TS,FZRA +TS,+FZRA
TAF
KCLE 241127Z 2412/2518 00000KT P6SM FEW250
  FM250600 17010KT P6SM BKN060
  FM251400 22011G19KT P6SM BKN110


Radar Display
Forecast Discussion